Dubendorf Airport LSMD

Flugplatz Daten

Name: Dubendorf Airport

Ident: LSMD

Lat: 47,39860153

Long: 8,648229599

Platzhöhe: 1470 ft

IataCode:

City: Zurich

Metar

2021/10/25 20:20
LSMD 252020Z AUTO 00000KT 9999NDV -SHRA BCFG NCD 05/05 Q1022 RMK

Taf

2021/10/25 17:00
TAF LSMD 251625Z 2517/2623 17003KT 9999 BKN120
BECMG 2518/2521 4500 MIFG NSC PROB40
TEMPO 2521/2602 2500 BCFG
BECMG 2523/2602 BKN030 PROB30
TEMPO 2604/2612 SHRA
BECMG 2606/2609 9999
Gewünschte Webcam nicht vorhanden? Dann fügen Sie eine hinzu. Sie wird dann so schnell wie möglich freigeschaltet
Url: Title: